Terminal Aerodrome Forecast
Issued by NWS Dallas/Fort Worth, TX

Current Version | Previous Version | Text Only | Print | Product List | Glossary On
Versions: 1 2 3 4 5 6 7 8 9 10 11 12 13 14 15 16 17 18 19 20 21 22 23 24 25 26 27 28 29 30 31 32 33
424
FTUS44 KFWD 172058 AAA
TAFDFW
TAF AMD
KDFW 172058Z 1721/1824 20018G29KT P6SM SCT035 BKN250
     FM180000 19016G26KT P6SM BKN250
     FM181000 23014KT P6SM BKN250
     FM181500 31023G34KT P6SM BKN250
     FM182300 35015KT P6SM SKC=

USA.gov is the U.S. government's official web portal to all federal, state and local government web resources and services.